createdAt,value
2023-04-15T00:00:15.503Z,93689.00
2023-04-15T00:01:15.522Z,93689.00
2023-04-15T00:02:15.559Z,93691.00
2023-04-15T00:03:15.722Z,93689.00
2023-04-15T00:04:15.566Z,93687.00
2023-04-15T00:05:15.484Z,93689.00
2023-04-15T00:06:15.485Z,93689.00
2023-04-15T00:07:15.441Z,93689.00
2023-04-15T00:08:15.426Z,93691.00
2023-04-15T00:09:15.467Z,93691.00
2023-04-15T00:10:15.430Z,93689.00
2023-04-15T00:11:15.458Z,93687.00
2023-04-15T00:12:15.397Z,93691.00
2023-04-15T00:13:15.573Z,93691.00
2023-04-15T00:14:15.404Z,93689.00
2023-04-15T00:15:15.408Z,93689.00
2023-04-15T00:16:15.443Z,93689.00
2023-04-15T00:17:15.399Z,93689.00
2023-04-15T00:18:15.399Z,93691.00
2023-04-15T00:19:15.365Z,93691.00
2023-04-15T00:20:15.358Z,93691.00
2023-04-15T00:21:15.343Z,93691.00
2023-04-15T00:22:15.335Z,93691.00
2023-04-15T00:23:15.355Z,93687.00
2023-04-15T00:24:15.381Z,93687.00
2023-04-15T00:25:15.382Z,93691.00
2023-04-15T00:26:15.368Z,93687.00
2023-04-15T00:27:15.384Z,93683.00
2023-04-15T00:28:15.410Z,93683.00
2023-04-15T00:29:15.376Z,93689.00
2023-04-15T00:30:15.393Z,93687.00
2023-04-15T00:31:15.394Z,93687.00
2023-04-15T00:32:15.385Z,93685.00
2023-04-15T00:33:15.386Z,93685.00
2023-04-15T00:34:15.373Z,93685.00
2023-04-15T00:35:15.383Z,93685.00
2023-04-15T00:36:15.398Z,93685.00
2023-04-15T00:37:15.399Z,93683.00
2023-04-15T00:38:15.395Z,93683.00
2023-04-15T00:39:15.386Z,93681.00
2023-04-15T00:40:15.370Z,93685.00
2023-04-15T00:41:15.401Z,93683.00
2023-04-15T00:42:15.382Z,93683.00
2023-04-15T00:43:15.369Z,93687.00
2023-04-15T00:44:15.353Z,93683.00
2023-04-15T00:45:15.373Z,93683.00
2023-04-15T00:46:15.424Z,93683.00
2023-04-15T00:47:15.376Z,93683.00
2023-04-15T00:48:15.349Z,93681.00
2023-04-15T00:49:15.350Z,93681.00
2023-04-15T00:50:15.354Z,93679.00
2023-04-15T00:51:15.353Z,93679.00
2023-04-15T00:52:15.357Z,93679.00
2023-04-15T00:53:15.358Z,93675.00
2023-04-15T00:54:15.350Z,93675.00
2023-04-15T00:55:15.335Z,93673.00
2023-04-15T00:56:15.324Z,93671.00
2023-04-15T00:57:15.324Z,93675.00
2023-04-15T00:58:15.363Z,93675.00
2023-04-15T00:59:15.323Z,93675.00
2023-04-15T01:00:15.331Z,93675.00
2023-04-15T01:01:15.353Z,93677.00
2023-04-15T01:02:15.426Z,93677.00
2023-04-15T01:03:15.520Z,93677.00
2023-04-15T01:04:15.453Z,93677.00
2023-04-15T01:05:15.309Z,93677.00
2023-04-15T01:06:15.299Z,93677.00
2023-04-15T01:07:15.331Z,93679.00
2023-04-15T01:08:15.293Z,93677.00
2023-04-15T01:09:15.292Z,93679.00
2023-04-15T01:10:15.291Z,93679.00
2023-04-15T01:11:15.284Z,93673.00
2023-04-15T01:12:15.314Z,93671.00
2023-04-15T01:13:15.284Z,93673.00
2023-04-15T01:14:15.263Z,93675.00
2023-04-15T01:15:15.268Z,93675.00
2023-04-15T01:16:15.263Z,93675.00
2023-04-15T01:17:15.256Z,93675.00
2023-04-15T01:18:15.260Z,93677.00
2023-04-15T01:19:15.291Z,93679.00
2023-04-15T01:20:15.272Z,93681.00
2023-04-15T01:21:15.275Z,93681.00
2023-04-15T01:22:15.236Z,93677.00
2023-04-15T01:23:15.246Z,93677.00
2023-04-15T01:24:15.233Z,93679.00
2023-04-15T01:25:15.292Z,93683.00
2023-04-15T01:26:15.259Z,93681.00
2023-04-15T01:27:15.241Z,93683.00
2023-04-15T01:28:15.233Z,93683.00
2023-04-15T01:29:15.252Z,93681.00
2023-04-15T01:30:15.243Z,93683.00
2023-04-15T01:31:15.342Z,93681.00
2023-04-15T01:32:15.272Z,93683.00
2023-04-15T01:33:15.245Z,93681.00
2023-04-15T01:34:15.246Z,93683.00
2023-04-15T01:35:15.288Z,93683.00
2023-04-15T01:36:15.269Z,93683.00
2023-04-15T01:37:15.267Z,93685.00
2023-04-15T01:38:15.270Z,93683.00
2023-04-15T01:39:15.298Z,93687.00
2023-04-15T01:40:15.262Z,93685.00
2023-04-15T01:41:15.300Z,93683.00
2023-04-15T01:42:15.288Z,93683.00
2023-04-15T01:43:15.278Z,93681.00
2023-04-15T01:44:15.276Z,93683.00
2023-04-15T01:45:15.270Z,93681.00
2023-04-15T01:46:15.300Z,93681.00
2023-04-15T01:47:15.273Z,93681.00
2023-04-15T01:48:15.273Z,93681.00
2023-04-15T01:49:15.301Z,93679.00
2023-04-15T01:50:15.321Z,93681.00
2023-04-15T01:51:15.269Z,93679.00
2023-04-15T01:52:15.297Z,93679.00
2023-04-15T01:53:15.275Z,93681.00
2023-04-15T01:54:15.278Z,93683.00
2023-04-15T01:55:15.302Z,93683.00
2023-04-15T01:56:16.794Z,93683.00
2023-04-15T01:57:15.267Z,93683.00
2023-04-15T01:58:15.297Z,93683.00
2023-04-15T01:59:15.270Z,93679.00
2023-04-15T02:00:15.271Z,93681.00
2023-04-15T02:01:15.361Z,93679.00
2023-04-15T02:02:15.310Z,93683.00
2023-04-15T02:03:15.362Z,93683.00
2023-04-15T02:04:15.296Z,93681.00
2023-04-15T02:05:15.312Z,93683.00
2023-04-15T02:06:15.305Z,93681.00
2023-04-15T02:07:15.302Z,93679.00
2023-04-15T02:08:15.298Z,93683.00
2023-04-15T02:09:15.307Z,93683.00
2023-04-15T02:10:15.288Z,93681.00
2023-04-15T02:11:15.306Z,93679.00
2023-04-15T02:12:15.312Z,93683.00
2023-04-15T02:13:15.296Z,93681.00
2023-04-15T02:14:15.303Z,93685.00
2023-04-15T02:15:15.325Z,93679.00
2023-04-15T02:16:15.321Z,93679.00
2023-04-15T02:17:15.330Z,93681.00
2023-04-15T02:18:15.321Z,93681.00
2023-04-15T02:19:15.323Z,93681.00
2023-04-15T02:20:15.300Z,93683.00
2023-04-15T02:21:15.337Z,93683.00
2023-04-15T02:22:15.337Z,93683.00
2023-04-15T02:23:15.351Z,93685.00
2023-04-15T02:24:15.331Z,93683.00
2023-04-15T02:25:15.332Z,93683.00
2023-04-15T02:26:15.362Z,93679.00
2023-04-15T02:27:15.401Z,93679.00
2023-04-15T02:28:15.405Z,93681.00
2023-04-15T02:29:15.380Z,93679.00
2023-04-15T02:30:15.420Z,93675.00
2023-04-15T02:31:15.425Z,93677.00
2023-04-15T02:32:15.412Z,93679.00
2023-04-15T02:33:15.430Z,93679.00
2023-04-15T02:34:15.433Z,93681.00
2023-04-15T02:35:15.461Z,93683.00
2023-04-15T02:36:15.470Z,93681.00
2023-04-15T02:37:15.465Z,93681.00
2023-04-15T02:38:15.460Z,93681.00
2023-04-15T02:39:15.469Z,93681.00
2023-04-15T02:40:15.476Z,93681.00
2023-04-15T02:41:15.490Z,93683.00
2023-04-15T02:42:15.483Z,93683.00
2023-04-15T02:43:15.469Z,93685.00
2023-04-15T02:44:15.481Z,93683.00
2023-04-15T02:45:15.501Z,93681.00
2023-04-15T02:46:15.538Z,93681.00
2023-04-15T02:47:15.505Z,93679.00
2023-04-15T02:48:15.506Z,93681.00
2023-04-15T02:49:15.521Z,93683.00
2023-04-15T02:50:15.554Z,93679.00
2023-04-15T02:51:15.526Z,93681.00
2023-04-15T02:52:15.541Z,93675.00
2023-04-15T02:53:15.542Z,93675.00
2023-04-15T02:54:15.546Z,93675.00
2023-04-15T02:55:15.614Z,93675.00
2023-04-15T02:56:15.595Z,93675.00
2023-04-15T02:57:15.560Z,93673.00
2023-04-15T02:58:15.567Z,93671.00
2023-04-15T02:59:15.565Z,93673.00
2023-04-15T03:00:15.589Z,93673.00
2023-04-15T03:01:15.630Z,93673.00
2023-04-15T03:02:15.690Z,93673.00
2023-04-15T03:03:15.798Z,93675.00
2023-04-15T03:04:15.736Z,93673.00
2023-04-15T03:05:15.632Z,93673.00
2023-04-15T03:06:15.628Z,93669.00
2023-04-15T03:07:15.612Z,93669.00
2023-04-15T03:08:15.633Z,93671.00
2023-04-15T03:09:15.636Z,93671.00
2023-04-15T03:10:15.697Z,93669.00
2023-04-15T03:11:15.654Z,93673.00
2023-04-15T03:12:15.667Z,93669.00
2023-04-15T03:13:15.667Z,93673.00
2023-04-15T03:14:15.690Z,93671.00
2023-04-15T03:15:15.874Z,93673.00
2023-04-15T03:16:15.785Z,93673.00
2023-04-15T03:17:15.710Z,93671.00
2023-04-15T03:18:15.743Z,93675.00
2023-04-15T03:19:15.767Z,93675.00
2023-04-15T03:20:15.839Z,93673.00
2023-04-15T03:21:15.785Z,93677.00
2023-04-15T03:22:15.804Z,93677.00
2023-04-15T03:23:15.828Z,93679.00
2023-04-15T03:24:15.838Z,93677.00
2023-04-15T03:25:15.878Z,93679.00
2023-04-15T03:26:15.858Z,93679.00
2023-04-15T03:27:15.867Z,93679.00
2023-04-15T03:28:15.877Z,93677.00
2023-04-15T03:29:15.892Z,93677.00
2023-04-15T03:30:15.906Z,93677.00
2023-04-15T03:31:15.947Z,93675.00
2023-04-15T03:32:15.908Z,93677.00
2023-04-15T03:33:15.920Z,93677.00
2023-04-15T03:34:15.919Z,93675.00
2023-04-15T03:35:15.960Z,93677.00
2023-04-15T03:36:15.946Z,93673.00
2023-04-15T03:37:15.954Z,93673.00
2023-04-15T03:38:15.985Z,93675.00
2023-04-15T03:39:15.984Z,93673.00
2023-04-15T03:40:16.038Z,93673.00
2023-04-15T03:41:16.015Z,93673.00
2023-04-15T03:42:16.003Z,93673.00
2023-04-15T03:43:16.048Z,93675.00
2023-04-15T03:44:16.033Z,93675.00
2023-04-15T03:45:16.081Z,93675.00
2023-04-15T03:46:16.092Z,93675.00
2023-04-15T03:47:16.083Z,93675.00
2023-04-15T03:48:18.200Z,93675.00
2023-04-15T03:49:16.102Z,93673.00
2023-04-15T03:50:16.129Z,93675.00
2023-04-15T03:51:16.118Z,93677.00
2023-04-15T03:52:16.164Z,93675.00
2023-04-15T03:53:16.148Z,93677.00
2023-04-15T03:54:16.157Z,93677.00
2023-04-15T03:55:16.234Z,93677.00
2023-04-15T03:56:16.194Z,93675.00
2023-04-15T03:57:16.186Z,93675.00
2023-04-15T03:58:16.218Z,93677.00
2023-04-15T03:59:16.244Z,93677.00
2023-04-15T04:00:16.223Z,93677.00
2023-04-15T04:01:16.232Z,93679.00
2023-04-15T04:02:16.306Z,93679.00
2023-04-15T04:03:16.431Z,93681.00
2023-04-15T04:04:16.350Z,93683.00
2023-04-15T04:05:16.336Z,93683.00
2023-04-15T04:06:16.307Z,93689.00
2023-04-15T04:07:16.355Z,93687.00
2023-04-15T04:08:16.357Z,93689.00
2023-04-15T04:09:16.359Z,93689.00
2023-04-15T04:10:16.402Z,93687.00
2023-04-15T04:11:16.408Z,93691.00
2023-04-15T04:12:16.391Z,93689.00
2023-04-15T04:13:16.462Z,93691.00
2023-04-15T04:14:16.440Z,93685.00
2023-04-15T04:15:16.474Z,93687.00
2023-04-15T04:16:16.603Z,93687.00
2023-04-15T04:17:16.516Z,93685.00
2023-04-15T04:18:16.555Z,93685.00
2023-04-15T04:19:16.560Z,93687.00
2023-04-15T04:20:16.579Z,93685.00
2023-04-15T04:21:16.605Z,93685.00
2023-04-15T04:22:16.617Z,93691.00
2023-04-15T04:23:16.648Z,93693.00
2023-04-15T04:24:16.660Z,93693.00
2023-04-15T04:25:16.663Z,93693.00
2023-04-15T04:26:16.695Z,93693.00
2023-04-15T04:27:16.711Z,93693.00
2023-04-15T04:28:16.730Z,93695.00
2023-04-15T04:29:16.742Z,93693.00
2023-04-15T04:30:16.768Z,93697.00
2023-04-15T04:31:16.794Z,93695.00
2023-04-15T04:32:16.838Z,93697.00
2023-04-15T04:33:16.837Z,93699.00
2023-04-15T04:34:16.825Z,93699.00
2023-04-15T04:35:16.852Z,93699.00
2023-04-15T04:36:16.858Z,93699.00
2023-04-15T04:37:16.875Z,93701.00
2023-04-15T04:38:16.918Z,93705.00
2023-04-15T04:39:16.943Z,93703.00
2023-04-15T04:40:16.915Z,93699.00
2023-04-15T04:41:16.915Z,93707.00
2023-04-15T04:42:16.937Z,93707.00
2023-04-15T04:43:16.961Z,93705.00
2023-04-15T04:44:17.023Z,93703.00
2023-04-15T04:45:16.988Z,93705.00
2023-04-15T04:46:17.112Z,93705.00
2023-04-15T04:47:17.003Z,93709.00
2023-04-15T04:48:17.099Z,93711.00
2023-04-15T04:49:17.036Z,93711.00
2023-04-15T04:50:17.100Z,93713.00
2023-04-15T04:51:17.062Z,93713.00
2023-04-15T04:52:17.084Z,93714.00
2023-04-15T04:53:17.141Z,93711.00
2023-04-15T04:54:17.159Z,93711.00
2023-04-15T04:55:17.414Z,93716.00
2023-04-15T04:56:17.198Z,93714.00
2023-04-15T04:57:17.220Z,93716.00
2023-04-15T04:58:17.235Z,93718.00
2023-04-15T04:59:18.390Z,93716.00
2023-04-15T05:00:17.276Z,93718.00
2023-04-15T05:01:17.318Z,93716.00
2023-04-15T05:02:17.440Z,93718.00
2023-04-15T05:03:17.613Z,93720.00
2023-04-15T05:04:17.412Z,93718.00
2023-04-15T05:05:17.364Z,93720.00
2023-04-15T05:06:17.431Z,93718.00
2023-04-15T05:07:17.400Z,93718.00
2023-04-15T05:08:17.426Z,93716.00
2023-04-15T05:09:17.437Z,93716.00
2023-04-15T05:10:17.471Z,93716.00
2023-04-15T05:11:17.539Z,93716.00
2023-04-15T05:12:17.497Z,93714.00
2023-04-15T05:13:17.535Z,93714.00
2023-04-15T05:14:17.557Z,93716.00
2023-04-15T05:15:17.563Z,93716.00
2023-04-15T05:16:17.698Z,93716.00
2023-04-15T05:17:17.610Z,93716.00
2023-04-15T05:18:17.659Z,93714.00
2023-04-15T05:19:17.684Z,93716.00
2023-04-15T05:20:17.691Z,93716.00
2023-04-15T05:21:17.707Z,93716.00
2023-04-15T05:22:17.733Z,93720.00
2023-04-15T05:23:17.757Z,93718.00
2023-04-15T05:24:17.774Z,93720.00
2023-04-15T05:25:17.805Z,93720.00
2023-04-15T05:26:17.835Z,93720.00
2023-04-15T05:27:17.840Z,93720.00
2023-04-15T05:28:17.868Z,93720.00
2023-04-15T05:29:17.913Z,93722.00
2023-04-15T05:30:17.914Z,93720.00
2023-04-15T05:31:17.988Z,93718.00
2023-04-15T05:32:18.032Z,93722.00
2023-04-15T05:33:18.002Z,93722.00
2023-04-15T05:34:18.014Z,93722.00
2023-04-15T05:35:18.028Z,93724.00
2023-04-15T05:36:18.051Z,93724.00
2023-04-15T05:37:18.089Z,93728.00
2023-04-15T05:38:18.097Z,93726.00
2023-04-15T05:39:18.160Z,93726.00
2023-04-15T05:40:18.168Z,93726.00
2023-04-15T05:41:19.826Z,93726.00
2023-04-15T05:42:18.174Z,93726.00
2023-04-15T05:43:18.215Z,93726.00
2023-04-15T05:44:18.203Z,93726.00
2023-04-15T05:45:18.258Z,93726.00
2023-04-15T05:46:18.280Z,93724.00
2023-04-15T05:47:18.372Z,93724.00
2023-04-15T05:48:18.320Z,93724.00
2023-04-15T05:49:18.330Z,93724.00
2023-04-15T05:50:18.366Z,93724.00
2023-04-15T05:51:18.390Z,93726.00
2023-04-15T05:52:18.406Z,93724.00
2023-04-15T05:53:18.404Z,93722.00
2023-04-15T05:54:20.008Z,93724.00
2023-04-15T05:55:18.462Z,93724.00
2023-04-15T05:56:18.488Z,93728.00
2023-04-15T05:57:18.495Z,93726.00
2023-04-15T05:58:18.511Z,93726.00
2023-04-15T05:59:18.532Z,93726.00
2023-04-15T06:00:18.564Z,93724.00
2023-04-15T06:01:18.581Z,93728.00
2023-04-15T06:02:18.709Z,93726.00
2023-04-15T06:03:18.676Z,93732.00
2023-04-15T06:04:18.708Z,93732.00
2023-04-15T06:05:18.687Z,93734.00
2023-04-15T06:06:18.717Z,93734.00
2023-04-15T06:07:18.723Z,93734.00
2023-04-15T06:08:18.745Z,93734.00
2023-04-15T06:09:18.800Z,93734.00
2023-04-15T06:10:18.756Z,93734.00
2023-04-15T06:11:18.803Z,93736.00
2023-04-15T06:12:18.821Z,93734.00
2023-04-15T06:13:18.839Z,93738.00
2023-04-15T06:14:18.853Z,93738.00
2023-04-15T06:15:18.874Z,93740.00
2023-04-15T06:16:18.936Z,93738.00
2023-04-15T06:17:18.956Z,93738.00
2023-04-15T06:18:18.882Z,93736.00
2023-04-15T06:19:18.922Z,93736.00
2023-04-15T06:20:18.943Z,93736.00
2023-04-15T06:21:18.943Z,93734.00
2023-04-15T06:22:18.959Z,93734.00
2023-04-15T06:23:18.978Z,93734.00
2023-04-15T06:24:18.993Z,93734.00
2023-04-15T06:25:19.009Z,93734.00
2023-04-15T06:26:19.034Z,93734.00
2023-04-15T06:27:19.028Z,93732.00
2023-04-15T06:28:19.072Z,93734.00
2023-04-15T06:29:19.093Z,93736.00
2023-04-15T06:30:19.114Z,93734.00
2023-04-15T06:31:19.178Z,93736.00
2023-04-15T06:32:19.153Z,93736.00
2023-04-15T06:33:19.123Z,93734.00
2023-04-15T06:34:19.148Z,93734.00
2023-04-15T06:35:19.181Z,93734.00
2023-04-15T06:36:19.281Z,93736.00
2023-04-15T06:37:19.242Z,93732.00
2023-04-15T06:38:19.256Z,93734.00
2023-04-15T06:39:19.273Z,93736.00
2023-04-15T06:40:19.305Z,93738.00
2023-04-15T06:41:19.359Z,93738.00
2023-04-15T06:42:19.339Z,93734.00
2023-04-15T06:43:19.392Z,93740.00
2023-04-15T06:44:19.421Z,93738.00
2023-04-15T06:45:19.409Z,93738.00
2023-04-15T06:46:19.572Z,93736.00
2023-04-15T06:47:19.539Z,93736.00
2023-04-15T06:48:19.508Z,93738.00
2023-04-15T06:49:19.503Z,93738.00
2023-04-15T06:50:19.543Z,93740.00
2023-04-15T06:51:19.557Z,93740.00
2023-04-15T06:52:19.588Z,93740.00
2023-04-15T06:53:19.646Z,93740.00
2023-04-15T06:54:19.661Z,93740.00
2023-04-15T06:55:19.719Z,93742.00
2023-04-15T06:56:19.715Z,93742.00
2023-04-15T06:57:19.706Z,93736.00
2023-04-15T06:58:19.746Z,93740.00
2023-04-15T06:59:19.771Z,93742.00
2023-04-15T07:00:19.792Z,93736.00
2023-04-15T07:01:19.875Z,93738.00
2023-04-15T07:02:19.907Z,93740.00
2023-04-15T07:03:19.890Z,93738.00
2023-04-15T07:04:19.954Z,93732.00
2023-04-15T07:05:19.932Z,93734.00
2023-04-15T07:06:19.913Z,93734.00
2023-04-15T07:07:19.910Z,93732.00
2023-04-15T07:08:19.960Z,93728.00
2023-04-15T07:09:19.955Z,93728.00
2023-04-15T07:10:20.031Z,93730.00
2023-04-15T07:11:19.989Z,93728.00
2023-04-15T07:12:20.028Z,93730.00
2023-04-15T07:13:20.051Z,93732.00
2023-04-15T07:14:20.077Z,93730.00
2023-04-15T07:15:20.150Z,93730.00
2023-04-15T07:16:20.177Z,93728.00
2023-04-15T07:17:20.191Z,93730.00
2023-04-15T07:18:20.146Z,93732.00
2023-04-15T07:19:20.172Z,93728.00
2023-04-15T07:20:20.952Z,93728.00
2023-04-15T07:21:20.237Z,93730.00
2023-04-15T07:22:20.245Z,93728.00
2023-04-15T07:23:20.295Z,93732.00
2023-04-15T07:24:20.274Z,93728.00
2023-04-15T07:25:20.302Z,93728.00
2023-04-15T07:26:20.324Z,93730.00
2023-04-15T07:27:20.347Z,93724.00
2023-04-15T07:28:20.360Z,93724.00
2023-04-15T07:29:20.364Z,93726.00
2023-04-15T07:30:20.437Z,93724.00
2023-04-15T07:31:20.432Z,93724.00
2023-04-15T07:32:20.469Z,93720.00
2023-04-15T07:33:20.434Z,93720.00
2023-04-15T07:34:20.476Z,93722.00
2023-04-15T07:35:20.488Z,93718.00
2023-04-15T07:36:20.486Z,93720.00
2023-04-15T07:37:20.529Z,93722.00
2023-04-15T07:38:20.528Z,93722.00
2023-04-15T07:39:20.536Z,93716.00
2023-04-15T07:40:20.576Z,93718.00
2023-04-15T07:41:20.572Z,93720.00
2023-04-15T07:42:20.588Z,93718.00
2023-04-15T07:43:20.616Z,93716.00
2023-04-15T07:44:20.618Z,93716.00
2023-04-15T07:45:20.632Z,93716.00
2023-04-15T07:46:20.696Z,93713.00
2023-04-15T07:47:20.719Z,93714.00
2023-04-15T07:48:20.719Z,93716.00
2023-04-15T07:49:20.707Z,93716.00
2023-04-15T07:50:20.741Z,93714.00
2023-04-15T07:51:20.768Z,93713.00
2023-04-15T07:52:20.778Z,93711.00
2023-04-15T07:53:20.794Z,93709.00
2023-04-15T07:54:20.814Z,93709.00
2023-04-15T07:55:20.833Z,93707.00
2023-04-15T07:56:20.873Z,93713.00
2023-04-15T07:57:20.865Z,93709.00
2023-04-15T07:58:20.897Z,93707.00
2023-04-15T07:59:20.907Z,93709.00
2023-04-15T08:00:20.940Z,93705.00
2023-04-15T08:01:20.932Z,93707.00
2023-04-15T08:02:21.136Z,93705.00
2023-04-15T08:03:21.045Z,93705.00
2023-04-15T08:04:21.108Z,93703.00
2023-04-15T08:05:21.139Z,93701.00
2023-04-15T08:06:21.026Z,93699.00
2023-04-15T08:07:21.045Z,93701.00
2023-04-15T08:08:21.030Z,93695.00
2023-04-15T08:09:21.061Z,93701.00
2023-04-15T08:10:21.082Z,93699.00
2023-04-15T08:11:21.066Z,93699.00
2023-04-15T08:12:21.118Z,93695.00
2023-04-15T08:13:21.112Z,93697.00
2023-04-15T08:14:21.122Z,93697.00
2023-04-15T08:15:21.120Z,93699.00
2023-04-15T08:16:21.178Z,93697.00
2023-04-15T08:17:21.176Z,93699.00
2023-04-15T08:18:21.158Z,93697.00
2023-04-15T08:19:21.203Z,93695.00
2023-04-15T08:20:21.272Z,93693.00
2023-04-15T08:21:21.198Z,93695.00
2023-04-15T08:22:22.351Z,93697.00
2023-04-15T08:23:21.236Z,93699.00
2023-04-15T08:24:21.274Z,93695.00
2023-04-15T08:25:21.298Z,93697.00
2023-04-15T08:26:21.334Z,93695.00
2023-04-15T08:27:21.327Z,93695.00
2023-04-15T08:28:21.355Z,93695.00
2023-04-15T08:29:21.372Z,93695.00
2023-04-15T08:30:21.412Z,93693.00
2023-04-15T08:31:21.430Z,93691.00
2023-04-15T08:32:21.462Z,93689.00
2023-04-15T08:33:21.459Z,93689.00
2023-04-15T08:34:21.494Z,93685.00
2023-04-15T08:35:21.498Z,93689.00
2023-04-15T08:36:21.510Z,93685.00
2023-04-15T08:37:21.539Z,93681.00
2023-04-15T08:38:21.550Z,93683.00
2023-04-15T08:39:21.566Z,93683.00
2023-04-15T08:40:21.612Z,93679.00
2023-04-15T08:41:21.621Z,93683.00
2023-04-15T08:42:21.632Z,93681.00
2023-04-15T08:43:21.644Z,93679.00
2023-04-15T08:44:21.662Z,93679.00
2023-04-15T08:45:21.684Z,93679.00
2023-04-15T08:46:21.714Z,93681.00
2023-04-15T08:47:21.777Z,93679.00
2023-04-15T08:48:21.734Z,93677.00
2023-04-15T08:49:21.758Z,93679.00
2023-04-15T08:50:21.757Z,93677.00
2023-04-15T08:51:23.238Z,93677.00
2023-04-15T08:52:21.786Z,93677.00
2023-04-15T08:53:21.836Z,93673.00
2023-04-15T08:54:21.827Z,93673.00
2023-04-15T08:55:21.883Z,93673.00
2023-04-15T08:56:21.890Z,93671.00
2023-04-15T08:57:21.902Z,93675.00
2023-04-15T08:58:21.920Z,93673.00
2023-04-15T08:59:21.941Z,93669.00
2023-04-15T09:00:22.008Z,93675.00
2023-04-15T09:01:22.041Z,93673.00
2023-04-15T09:02:22.113Z,93671.00
2023-04-15T09:03:22.115Z,93669.00
2023-04-15T09:04:22.066Z,93671.00
2023-04-15T09:05:22.121Z,93669.00
2023-04-15T09:06:22.120Z,93667.00
2023-04-15T09:07:22.141Z,93667.00
2023-04-15T09:08:22.238Z,93666.00
2023-04-15T09:09:22.198Z,93666.00
2023-04-15T09:10:22.209Z,93666.00
2023-04-15T09:11:22.226Z,93664.00
2023-04-15T09:12:22.252Z,93667.00
2023-04-15T09:13:22.272Z,93666.00
2023-04-15T09:14:22.287Z,93667.00
2023-04-15T09:15:22.319Z,93666.00
2023-04-15T09:16:22.411Z,93666.00
2023-04-15T09:17:22.388Z,93664.00
2023-04-15T09:18:22.364Z,93664.00
2023-04-15T09:19:22.364Z,93666.00
2023-04-15T09:20:22.444Z,93666.00
2023-04-15T09:21:22.455Z,93662.00
2023-04-15T09:22:22.438Z,93664.00
2023-04-15T09:23:22.450Z,93658.00
2023-04-15T09:24:22.455Z,93660.00
2023-04-15T09:25:22.489Z,93660.00
2023-04-15T09:26:22.497Z,93662.00
2023-04-15T09:27:22.514Z,93658.00
2023-04-15T09:28:22.544Z,93660.00
2023-04-15T09:29:22.514Z,93658.00
2023-04-15T09:30:22.539Z,93656.00
2023-04-15T09:31:22.598Z,93656.00
2023-04-15T09:32:22.592Z,93650.00
2023-04-15T09:33:22.567Z,93652.00
2023-04-15T09:34:22.555Z,93652.00
2023-04-15T09:35:22.582Z,93652.00
2023-04-15T09:36:22.591Z,93650.00
2023-04-15T09:37:32.024Z,93656.00
2023-04-15T09:38:24.043Z,93656.00
2023-04-15T09:39:22.538Z,93652.00
2023-04-15T09:40:23.518Z,93652.00
2023-04-15T09:41:22.586Z,93648.00
2023-04-15T09:42:22.496Z,93648.00
2023-04-15T09:43:22.559Z,93650.00
2023-04-15T09:44:22.498Z,93652.00
2023-04-15T09:45:22.477Z,93650.00
2023-04-15T09:46:22.504Z,93646.00
2023-04-15T09:47:22.488Z,93646.00
2023-04-15T09:48:22.461Z,93644.00
2023-04-15T09:49:22.490Z,93640.00
2023-04-15T09:50:22.437Z,93640.00
2023-04-15T09:51:22.484Z,93640.00
2023-04-15T09:52:22.427Z,93638.00
2023-04-15T09:53:22.483Z,93632.00
2023-04-15T09:54:22.459Z,93634.00
2023-04-15T09:55:22.410Z,93632.00
2023-04-15T09:56:22.442Z,93630.00
2023-04-15T09:57:22.409Z,93630.00
2023-04-15T09:58:22.433Z,93630.00
2023-04-15T09:59:22.389Z,93630.00
2023-04-15T10:00:22.420Z,93628.00
2023-04-15T10:01:22.419Z,93630.00
2023-04-15T10:02:22.613Z,93628.00
2023-04-15T10:03:22.820Z,93626.00
2023-04-15T10:04:22.710Z,93628.00
2023-04-15T10:05:22.657Z,93630.00
2023-04-15T10:06:22.689Z,93630.00
2023-04-15T10:07:22.762Z,93628.00
2023-04-15T10:08:22.830Z,93626.00
2023-04-15T10:09:22.886Z,93626.00
2023-04-15T10:10:22.962Z,93626.00
2023-04-15T10:11:23.028Z,93626.00
2023-04-15T10:12:23.068Z,93626.00
2023-04-15T10:13:23.126Z,93628.00
2023-04-15T10:14:23.191Z,93628.00
2023-04-15T10:15:23.251Z,93626.00
2023-04-15T10:16:23.428Z,93628.00
2023-04-15T10:17:23.424Z,93622.00
2023-04-15T10:18:23.484Z,93624.00
2023-04-15T10:19:23.491Z,93624.00
2023-04-15T10:20:24.559Z,93622.00
2023-04-15T10:21:23.637Z,93620.00
2023-04-15T10:22:23.662Z,93624.00
2023-04-15T10:23:23.713Z,93622.00
2023-04-15T10:24:23.779Z,93622.00
2023-04-15T10:25:23.845Z,93620.00
2023-04-15T10:26:23.925Z,93622.00
2023-04-15T10:27:23.962Z,93624.00
2023-04-15T10:28:24.026Z,93628.00
2023-04-15T10:29:24.056Z,93626.00
2023-04-15T10:30:24.143Z,93628.00
2023-04-15T10:31:24.250Z,93634.00
2023-04-15T10:32:24.275Z,93632.00
2023-04-15T10:33:24.270Z,93632.00
2023-04-15T10:34:24.371Z,93630.00
2023-04-15T10:35:24.382Z,93634.00
2023-04-15T10:36:24.434Z,93634.00
2023-04-15T10:37:24.533Z,93634.00
2023-04-15T10:38:24.556Z,93634.00
2023-04-15T10:39:24.611Z,93640.00
2023-04-15T10:40:24.706Z,93644.00
2023-04-15T10:41:24.771Z,93644.00
2023-04-15T10:42:24.811Z,93644.00
2023-04-15T10:43:24.889Z,93646.00
2023-04-15T10:44:24.975Z,93644.00
2023-04-15T10:45:24.989Z,93646.00
2023-04-15T10:46:25.070Z,93644.00
2023-04-15T10:47:25.158Z,93648.00
2023-04-15T10:48:25.170Z,93648.00
2023-04-15T10:49:25.261Z,93648.00
2023-04-15T10:50:25.311Z,93648.00
2023-04-15T10:51:25.365Z,93650.00
2023-04-15T10:52:25.416Z,93650.00
2023-04-15T10:53:25.508Z,93652.00
2023-04-15T10:54:25.573Z,93650.00
2023-04-15T10:55:25.648Z,93652.00
2023-04-15T10:56:25.714Z,93652.00
2023-04-15T10:57:25.748Z,93652.00
2023-04-15T10:58:25.845Z,93650.00
2023-04-15T10:59:25.874Z,93654.00
2023-04-15T11:00:26.000Z,93652.00
2023-04-15T11:01:26.015Z,93650.00
2023-04-15T11:02:26.338Z,93650.00
2023-04-15T11:03:26.210Z,93652.00
2023-04-15T11:04:26.293Z,93650.00
2023-04-15T11:05:26.230Z,93650.00
2023-04-15T11:06:26.302Z,93648.00
2023-04-15T11:07:26.372Z,93650.00
2023-04-15T11:08:26.442Z,93650.00
2023-04-15T11:09:26.516Z,93650.00
2023-04-15T11:10:26.547Z,93652.00
2023-04-15T11:11:26.598Z,93646.00
2023-04-15T11:12:26.672Z,93644.00
2023-04-15T11:13:26.720Z,93644.00
2023-04-15T11:14:26.775Z,93644.00
2023-04-15T11:15:26.864Z,93644.00
2023-04-15T11:16:26.918Z,93646.00
2023-04-15T11:17:26.976Z,93646.00
2023-04-15T11:18:26.988Z,93642.00
2023-04-15T11:19:27.030Z,93646.00
2023-04-15T11:20:27.161Z,93648.00
2023-04-15T11:21:27.092Z,93648.00
2023-04-15T11:22:27.156Z,93648.00
2023-04-15T11:23:27.175Z,93648.00
2023-04-15T11:24:27.252Z,93648.00
2023-04-15T11:25:27.254Z,93650.00
2023-04-15T11:26:27.295Z,93652.00
2023-04-15T11:27:27.342Z,93648.00
2023-04-15T11:28:27.329Z,93650.00
2023-04-15T11:29:27.401Z,93648.00
2023-04-15T11:30:27.402Z,93650.00
2023-04-15T11:31:27.452Z,93652.00
2023-04-15T11:32:27.566Z,93650.00
2023-04-15T11:33:27.470Z,93650.00
2023-04-15T11:34:27.540Z,93650.00
2023-04-15T11:35:27.516Z,93652.00
2023-04-15T11:36:27.560Z,93650.00
2023-04-15T11:37:27.592Z,93652.00
2023-04-15T11:38:27.649Z,93652.00
2023-04-15T11:39:27.791Z,93652.00
2023-04-15T11:40:27.787Z,93648.00
2023-04-15T11:41:27.830Z,93648.00
2023-04-15T11:42:36.223Z,93650.00
2023-04-15T11:43:28.889Z,93650.00
2023-04-15T11:44:27.893Z,93648.00